createdAt,value
2019-05-01T00:00:58.481Z,99.90
2019-05-01T00:03:35.564Z,99.90
2019-05-01T00:06:06.658Z,99.90
2019-05-01T00:08:36.133Z,99.90
2019-05-01T00:11:05.673Z,99.90
2019-05-01T00:13:35.263Z,99.90
2019-05-01T00:16:04.749Z,99.90
2019-05-01T00:18:34.198Z,99.90
2019-05-01T00:21:03.578Z,99.90
2019-05-01T00:23:32.959Z,99.90
2019-05-01T00:26:02.357Z,99.90
2019-05-01T00:28:31.795Z,99.90
2019-05-01T00:31:01.194Z,99.90
2019-05-01T00:33:30.639Z,99.90
2019-05-01T00:36:00.104Z,99.90
2019-05-01T00:38:29.516Z,99.90
2019-05-01T00:40:58.909Z,99.90
2019-05-01T00:43:28.369Z,99.90
2019-05-01T00:45:57.761Z,99.90
2019-05-01T00:48:27.241Z,99.90
2019-05-01T00:50:56.701Z,99.90
2019-05-01T00:53:26.128Z,99.90
2019-05-01T00:56:12.037Z,99.90
2019-05-01T00:58:49.169Z,99.90
2019-05-01T01:01:36.428Z,99.90
2019-05-01T01:04:06.080Z,99.90
2019-05-01T01:06:35.546Z,99.90
2019-05-01T01:09:07.317Z,99.90
2019-05-01T01:11:36.822Z,99.90
2019-05-01T01:14:06.624Z,99.90
2019-05-01T01:16:36.013Z,99.90
2019-05-01T01:19:05.387Z,99.90
2019-05-01T01:21:34.808Z,99.90
2019-05-01T01:24:04.352Z,99.90
2019-05-01T01:26:33.988Z,99.90
2019-05-01T01:29:03.812Z,99.90
2019-05-01T01:31:33.251Z,99.90
2019-05-01T01:34:02.761Z,99.90
2019-05-01T01:36:32.148Z,99.90
2019-05-01T01:39:01.657Z,99.90
2019-05-01T01:41:31.317Z,99.90
2019-05-01T01:44:02.406Z,99.90
2019-05-01T01:46:33.587Z,99.90
2019-05-01T01:49:03.035Z,99.90
2019-05-01T01:51:32.560Z,99.90
2019-05-01T01:54:02.285Z,99.90
2019-05-01T01:56:31.753Z,99.90
2019-05-01T01:59:01.265Z,99.90
2019-05-01T02:01:38.366Z,99.90
2019-05-01T02:04:13.613Z,99.90
2019-05-01T02:06:43.010Z,99.90
2019-05-01T02:09:12.474Z,99.90
2019-05-01T02:11:41.924Z,99.90
2019-05-01T02:14:11.312Z,99.90
2019-05-01T02:16:40.793Z,99.90
2019-05-01T02:19:10.162Z,99.90
2019-05-01T02:21:39.566Z,99.90
2019-05-01T02:24:08.936Z,99.90
2019-05-01T02:26:42.833Z,99.90
2019-05-01T02:29:23.345Z,99.90
2019-05-01T02:31:54.063Z,99.90
2019-05-01T02:34:25.377Z,99.90
2019-05-01T02:36:57.214Z,99.90
2019-05-01T02:39:27.252Z,99.90
2019-05-01T02:41:59.717Z,99.90
2019-05-01T02:44:32.167Z,99.90
2019-05-01T02:47:04.641Z,99.90
2019-05-01T02:49:51.500Z,99.90
2019-05-01T02:52:23.319Z,99.90
2019-05-01T02:54:54.784Z,99.90
2019-05-01T02:57:24.721Z,99.90
2019-05-01T02:59:55.180Z,99.90
2019-05-01T03:02:26.957Z,99.90
2019-05-01T03:04:57.763Z,99.90
2019-05-01T03:07:30.292Z,99.90
2019-05-01T03:10:00.901Z,99.90
2019-05-01T03:12:32.988Z,99.90
2019-05-01T03:15:04.030Z,99.90
2019-05-01T03:17:52.849Z,99.90
2019-05-01T03:20:24.244Z,99.90
2019-05-01T03:23:11.898Z,99.90
2019-05-01T03:25:41.918Z,99.90
2019-05-01T03:28:12.364Z,99.90
2019-05-01T03:30:42.009Z,99.90
2019-05-01T03:33:11.473Z,99.90
2019-05-01T03:35:41.105Z,99.90
2019-05-01T03:38:10.536Z,99.90
2019-05-01T03:40:41.034Z,99.90
2019-05-01T03:43:10.488Z,99.90
2019-05-01T03:45:40.526Z,99.90
2019-05-01T03:48:10.334Z,99.90
2019-05-01T03:50:39.804Z,99.90
2019-05-01T03:53:09.243Z,99.90
2019-05-01T03:55:38.713Z,99.90
2019-05-01T03:58:08.148Z,99.90
2019-05-01T04:00:39.504Z,99.90
2019-05-01T04:03:29.616Z,99.90
2019-05-01T04:05:59.398Z,99.90
2019-05-01T04:08:29.119Z,99.90
2019-05-01T04:10:58.939Z,99.90
2019-05-01T04:13:28.561Z,99.90
2019-05-01T04:15:58.276Z,99.90
2019-05-01T04:18:27.814Z,99.90
2019-05-01T04:20:57.945Z,99.90
2019-05-01T04:23:27.465Z,99.90
2019-05-01T04:25:56.867Z,99.90
2019-05-01T04:28:37.308Z,99.90
2019-05-01T04:31:23.566Z,99.90
2019-05-01T04:34:10.713Z,99.90
2019-05-01T04:36:41.756Z,99.90
2019-05-01T04:39:11.475Z,99.90
2019-05-01T04:41:41.008Z,99.90
2019-05-01T04:44:10.440Z,99.90
2019-05-01T04:46:39.895Z,99.90
2019-05-01T04:49:09.341Z,99.90
2019-05-01T04:51:38.797Z,99.90
2019-05-01T04:54:08.605Z,99.90
2019-05-01T04:56:38.236Z,99.90
2019-05-01T04:59:08.057Z,99.90
2019-05-01T05:01:56.751Z,99.90
2019-05-01T05:04:25.341Z,99.90
2019-05-01T05:06:55.638Z,99.90
2019-05-01T05:09:46.614Z,99.90
2019-05-01T05:12:29.914Z,99.90
2019-05-01T05:15:07.499Z,99.90
2019-05-01T05:17:37.044Z,99.90
2019-05-01T05:20:07.491Z,99.90
2019-05-01T05:22:36.888Z,99.90
2019-05-01T05:25:06.513Z,99.90
2019-05-01T05:27:37.139Z,99.90
2019-05-01T05:30:06.653Z,99.90
2019-05-01T05:32:37.682Z,99.90
2019-05-01T05:35:10.371Z,99.90
2019-05-01T05:37:48.828Z,99.90
2019-05-01T05:40:18.732Z,99.90
2019-05-01T05:42:48.285Z,99.90
2019-05-01T05:45:17.987Z,99.90
2019-05-01T05:47:47.635Z,99.90
2019-05-01T05:50:19.740Z,99.90
2019-05-01T05:52:57.946Z,99.90
2019-05-01T05:55:36.581Z,99.90
2019-05-01T05:58:09.727Z,99.90
2019-05-01T06:00:58.687Z,99.90
2019-05-01T06:03:48.465Z,99.90
2019-05-01T06:06:25.084Z,99.90
2019-05-01T06:08:57.159Z,99.90
2019-05-01T06:11:36.496Z,99.90
2019-05-01T06:14:18.762Z,99.90
2019-05-01T06:16:52.060Z,99.90
2019-05-01T06:19:37.928Z,99.90
2019-05-01T06:22:11.785Z,99.90
2019-05-01T06:24:46.303Z,99.90
2019-05-01T06:27:16.337Z,99.90
2019-05-01T06:29:45.715Z,99.90
2019-05-01T06:32:15.188Z,99.90
2019-05-01T06:34:44.714Z,99.90
2019-05-01T06:37:14.100Z,99.90
2019-05-01T06:39:47.893Z,99.90
2019-05-01T06:42:17.660Z,99.90
2019-05-01T06:44:49.211Z,99.90
2019-05-01T06:47:20.471Z,99.90
2019-05-01T06:50:07.438Z,99.90
2019-05-01T06:52:41.967Z,99.90
2019-05-01T06:55:11.583Z,99.90
2019-05-01T06:57:43.666Z,99.90
2019-05-01T07:00:15.892Z,99.90
2019-05-01T07:02:46.919Z,99.90
2019-05-01T07:05:16.571Z,99.90
2019-05-01T07:07:48.154Z,99.90
2019-05-01T07:10:29.806Z,99.90
2019-05-01T07:13:04.952Z,99.90
2019-05-01T07:15:34.761Z,99.90
2019-05-01T07:18:04.670Z,99.90
2019-05-01T07:20:35.937Z,99.90
2019-05-01T07:23:05.988Z,99.90
2019-05-01T07:25:39.516Z,99.90
2019-05-01T07:28:06.670Z,99.90
2019-05-01T07:30:37.949Z,99.90
2019-05-01T07:33:07.413Z,99.90
2019-05-01T07:35:38.135Z,99.90
2019-05-01T07:38:07.628Z,99.90
2019-05-01T07:40:41.128Z,99.90
2019-05-01T07:43:19.112Z,99.90
2019-05-01T07:45:48.115Z,99.90
2019-05-01T07:48:20.559Z,99.90
2019-05-01T07:50:50.193Z,99.90
2019-05-01T07:53:23.709Z,99.90
2019-05-01T07:55:52.635Z,99.90
2019-05-01T07:58:22.213Z,99.90
2019-05-01T08:01:02.332Z,99.90
2019-05-01T08:03:31.970Z,99.90
2019-05-01T08:06:01.369Z,99.90
2019-05-01T08:08:30.855Z,99.90
2019-05-01T08:11:05.330Z,99.90
2019-05-01T08:13:34.956Z,99.90
2019-05-01T08:16:07.293Z,99.90
2019-05-01T08:18:46.997Z,99.90
2019-05-01T08:21:21.228Z,99.90
2019-05-01T08:23:49.325Z,99.90
2019-05-01T08:26:18.762Z,99.90
2019-05-01T08:29:08.156Z,99.90
2019-05-01T08:31:58.798Z,99.90
2019-05-01T08:34:30.741Z,99.90
2019-05-01T08:37:00.236Z,99.90
2019-05-01T08:39:29.766Z,99.90
2019-05-01T08:42:02.930Z,99.90
2019-05-01T08:44:43.808Z,99.90
2019-05-01T08:47:20.838Z,99.90
2019-05-01T08:49:50.864Z,99.90
2019-05-01T08:52:20.403Z,99.90
2019-05-01T08:54:49.865Z,99.90
2019-05-01T08:57:19.266Z,99.90
2019-05-01T08:59:48.653Z,99.90
2019-05-01T09:02:18.174Z,99.90
2019-05-01T09:04:47.578Z,99.90
2019-05-01T09:07:31.095Z,99.90
2019-05-01T09:10:00.554Z,99.90
2019-05-01T09:12:30.008Z,99.90
2019-05-01T09:14:59.399Z,99.90
2019-05-01T09:17:29.023Z,99.90
2019-05-01T09:19:58.538Z,99.90
2019-05-01T09:22:29.462Z,99.90
2019-05-01T09:25:00.296Z,99.90
2019-05-01T09:27:40.492Z,99.90
2019-05-01T09:30:11.956Z,99.90
2019-05-01T09:32:46.014Z,99.90
2019-05-01T09:35:15.993Z,99.90
2019-05-01T09:37:45.752Z,99.90
2019-05-01T09:40:15.883Z,99.90
2019-05-01T09:42:45.357Z,99.90
2019-05-01T09:45:16.763Z,99.90
2019-05-01T09:47:46.196Z,99.90
2019-05-01T09:50:15.679Z,99.90
2019-05-01T09:52:49.485Z,99.90
2019-05-01T09:55:29.561Z,98.80
2019-05-01T09:57:58.924Z,97.60
2019-05-01T10:00:30.062Z,95.70
2019-05-01T10:02:59.469Z,95.00
2019-05-01T10:05:29.365Z,94.30
2019-05-01T10:08:00.159Z,92.40
2019-05-01T10:10:30.650Z,91.40
2019-05-01T10:13:00.272Z,87.30
2019-05-01T10:15:29.656Z,89.40
2019-05-01T10:17:59.004Z,91.30
2019-05-01T10:20:28.436Z,91.80
2019-05-01T10:22:57.833Z,91.30
2019-05-01T10:25:27.233Z,90.10
2019-05-01T10:27:58.332Z,91.10
2019-05-01T10:30:31.679Z,89.90
2019-05-01T10:33:08.041Z,88.80
2019-05-01T10:35:55.279Z,88.20
2019-05-01T10:38:24.661Z,87.90
2019-05-01T10:40:54.060Z,83.40
2019-05-01T10:43:23.547Z,81.80
2019-05-01T10:45:52.954Z,79.30
2019-05-01T10:48:22.335Z,77.70
2019-05-01T10:50:51.720Z,75.60
2019-05-01T10:53:21.126Z,73.30
2019-05-01T10:55:50.537Z,74.30
2019-05-01T10:58:20.307Z,73.70
2019-05-01T11:00:51.462Z,74.70
2019-05-01T11:03:22.482Z,73.00
2019-05-01T11:05:55.969Z,71.60
2019-05-01T11:08:23.008Z,71.10
2019-05-01T11:10:52.422Z,69.30
2019-05-01T11:13:21.806Z,66.60
2019-05-01T11:15:51.208Z,61.10
2019-05-01T11:18:20.700Z,54.50
2019-05-01T11:20:50.108Z,49.90
2019-05-01T11:23:19.470Z,47.30
2019-05-01T11:25:48.867Z,44.60
2019-05-01T11:28:18.884Z,42.90
2019-05-01T11:30:48.293Z,40.70
2019-05-01T11:33:19.368Z,40.80
2019-05-01T11:35:53.463Z,39.50
2019-05-01T11:38:34.013Z,39.20
2019-05-01T11:41:14.858Z,36.40
2019-05-01T11:43:44.815Z,36.40
2019-05-01T11:46:14.785Z,35.30
2019-05-01T11:48:44.801Z,35.20
2019-05-01T11:51:14.765Z,36.10
2019-05-01T11:53:44.716Z,35.80
2019-05-01T11:56:14.658Z,35.00
2019-05-01T11:58:44.693Z,35.60
2019-05-01T12:01:16.340Z,34.80
2019-05-01T12:03:46.306Z,34.00
2019-05-01T12:06:22.773Z,33.60
2019-05-01T12:08:47.885Z,32.30
2019-05-01T12:11:19.518Z,32.10
2019-05-01T12:13:49.691Z,30.80
2019-05-01T12:16:33.105Z,31.20
2019-05-01T12:19:03.337Z,31.50
2019-05-01T12:21:33.257Z,31.10
2019-05-01T12:24:03.401Z,30.60
2019-05-01T12:26:33.285Z,29.70
2019-05-01T12:29:03.259Z,30.30
2019-05-01T12:31:33.128Z,29.60
2019-05-01T12:34:03.249Z,29.90
2019-05-01T12:36:36.315Z,30.00
2019-05-01T12:39:08.738Z,29.90
2019-05-01T12:41:52.505Z,27.80
2019-05-01T12:44:22.456Z,29.40
2019-05-01T12:46:54.134Z,29.60
2019-05-01T12:49:24.870Z,28.30
2019-05-01T12:52:09.625Z,28.00
2019-05-01T12:54:45.478Z,28.80
2019-05-01T12:57:17.274Z,28.50
2019-05-01T12:59:47.249Z,28.60
2019-05-01T13:02:17.175Z,28.10
2019-05-01T13:04:49.700Z,27.60
2019-05-01T13:07:20.895Z,25.20
2019-05-01T13:09:50.927Z,25.20
2019-05-01T13:12:20.866Z,24.70
2019-05-01T13:14:50.502Z,25.50
2019-05-01T13:17:20.178Z,24.50
2019-05-01T13:19:49.829Z,25.00
2019-05-01T13:22:19.801Z,24.70
2019-05-01T13:24:49.506Z,25.00
2019-05-01T13:27:36.602Z,24.90
2019-05-01T13:30:16.447Z,25.30
2019-05-01T13:32:48.029Z,26.80
2019-05-01T13:35:17.663Z,26.80
2019-05-01T13:37:47.620Z,27.10
2019-05-01T13:40:18.038Z,26.50
2019-05-01T13:42:47.790Z,26.30
2019-05-01T13:45:18.168Z,26.90
2019-05-01T13:47:48.105Z,27.50
2019-05-01T13:50:18.207Z,28.00
2019-05-01T13:52:48.214Z,28.10
2019-05-01T13:55:18.458Z,28.00
2019-05-01T13:57:48.410Z,27.80
2019-05-01T14:00:19.187Z,27.50
2019-05-01T14:02:49.187Z,27.60
2019-05-01T14:05:19.218Z,27.80
2019-05-01T14:07:48.954Z,27.50
2019-05-01T14:10:19.188Z,26.50
2019-05-01T14:12:48.825Z,26.60
2019-05-01T14:15:21.829Z,26.30
2019-05-01T14:17:51.812Z,26.90
2019-05-01T14:20:23.466Z,28.30
2019-05-01T14:23:00.507Z,30.20
2019-05-01T14:25:32.173Z,32.60
2019-05-01T14:28:02.057Z,34.30
2019-05-01T14:30:32.004Z,35.80
2019-05-01T14:33:02.019Z,35.70
2019-05-01T14:35:31.999Z,36.50
2019-05-01T14:38:01.789Z,37.60
2019-05-01T14:40:33.421Z,38.50
2019-05-01T14:43:02.363Z,38.90
2019-05-01T14:45:34.631Z,39.40
2019-05-01T14:48:04.318Z,38.30
2019-05-01T14:50:33.974Z,37.20
2019-05-01T14:53:03.433Z,36.20
2019-05-01T14:55:32.822Z,36.30
2019-05-01T14:58:02.774Z,35.30
2019-05-01T15:00:32.778Z,35.20
2019-05-01T15:03:02.882Z,33.70
2019-05-01T15:05:34.005Z,33.10
2019-05-01T15:08:06.675Z,34.70
2019-05-01T15:10:36.613Z,36.80
2019-05-01T15:13:10.747Z,37.10
2019-05-01T15:15:45.040Z,35.10
2019-05-01T15:18:16.620Z,33.30
2019-05-01T15:20:46.631Z,31.60
2019-05-01T15:23:17.011Z,31.10
2019-05-01T15:25:47.273Z,30.50
2019-05-01T15:28:17.462Z,29.90
2019-05-01T15:30:50.144Z,29.70
2019-05-01T15:33:22.297Z,29.40
2019-05-01T15:35:51.968Z,28.70
2019-05-01T15:38:22.080Z,28.40
2019-05-01T15:40:53.507Z,27.90
2019-05-01T15:43:27.922Z,28.20
2019-05-01T15:45:57.602Z,28.60
2019-05-01T15:48:27.835Z,29.10
2019-05-01T15:50:58.263Z,29.80
2019-05-01T15:53:28.283Z,31.80
2019-05-01T15:55:58.384Z,32.80
2019-05-01T15:58:30.151Z,34.10
2019-05-01T16:01:00.113Z,33.60
2019-05-01T16:03:32.563Z,34.70
2019-05-01T16:06:03.263Z,35.70
2019-05-01T16:08:33.652Z,36.30
2019-05-01T16:11:13.911Z,37.40
2019-05-01T16:13:43.350Z,40.90
2019-05-01T16:16:14.756Z,44.10
2019-05-01T16:18:44.217Z,43.40
2019-05-01T16:21:16.329Z,44.20
2019-05-01T16:23:45.817Z,44.80
2019-05-01T16:26:15.349Z,45.30
2019-05-01T16:28:45.301Z,43.80
2019-05-01T16:31:14.721Z,41.00
2019-05-01T16:33:44.745Z,40.00
2019-05-01T16:36:14.788Z,38.40
2019-05-01T16:39:02.652Z,37.60
2019-05-01T16:41:32.714Z,37.80
2019-05-01T16:44:02.762Z,38.70
2019-05-01T16:46:32.716Z,39.40
2019-05-01T16:49:03.269Z,38.80
2019-05-01T16:51:37.126Z,38.20
2019-05-01T16:54:06.673Z,37.90
2019-05-01T16:56:36.760Z,38.00
2019-05-01T16:59:07.039Z,37.70
2019-05-01T17:01:44.499Z,38.10
2019-05-01T17:04:32.406Z,39.10
2019-05-01T17:07:22.369Z,41.20
2019-05-01T17:10:12.640Z,44.20
2019-05-01T17:12:47.080Z,45.70
2019-05-01T17:15:18.917Z,45.30
2019-05-01T17:17:48.387Z,46.20
2019-05-01T17:20:18.354Z,46.80
2019-05-01T17:22:50.802Z,47.50
2019-05-01T17:25:18.836Z,47.70
2019-05-01T17:27:48.231Z,48.00
2019-05-01T17:30:20.832Z,48.00
2019-05-01T17:32:50.242Z,49.40
2019-05-01T17:35:19.640Z,50.10
2019-05-01T17:37:49.027Z,51.40
2019-05-01T17:40:18.478Z,52.20
2019-05-01T17:42:47.901Z,53.30
2019-05-01T17:45:20.990Z,54.20
2019-05-01T17:47:52.832Z,54.60
2019-05-01T17:50:22.714Z,55.70
2019-05-01T17:52:52.570Z,57.30
2019-05-01T17:55:22.116Z,59.30
2019-05-01T17:57:53.028Z,60.60
2019-05-01T18:00:39.478Z,61.00
2019-05-01T18:03:13.252Z,61.10
2019-05-01T18:05:47.263Z,62.00
2019-05-01T18:08:16.727Z,61.80
2019-05-01T18:10:46.115Z,62.70
2019-05-01T18:13:15.507Z,63.00
2019-05-01T18:15:44.918Z,63.70
2019-05-01T18:18:15.280Z,63.90
2019-05-01T18:20:45.963Z,64.70
2019-05-01T18:23:17.075Z,66.10
2019-05-01T18:26:00.186Z,67.90
2019-05-01T18:28:39.729Z,69.10
2019-05-01T18:31:11.059Z,71.10
2019-05-01T18:33:40.520Z,73.50
2019-05-01T18:36:10.233Z,77.90
2019-05-01T18:38:47.591Z,82.10
2019-05-01T18:41:20.302Z,82.20
2019-05-01T18:43:49.792Z,82.90
2019-05-01T18:46:21.047Z,86.20
2019-05-01T18:48:50.652Z,89.50
2019-05-01T18:51:20.116Z,91.20
2019-05-01T18:53:49.914Z,91.60
2019-05-01T18:56:19.401Z,91.60
2019-05-01T18:58:48.938Z,93.20
2019-05-01T19:01:18.465Z,94.30
2019-05-01T19:03:48.224Z,94.60
2019-05-01T19:06:17.868Z,94.90
2019-05-01T19:08:47.370Z,95.90
2019-05-01T19:11:17.462Z,97.00
2019-05-01T19:13:47.256Z,98.00
2019-05-01T19:16:16.724Z,99.90
2019-05-01T19:18:48.987Z,99.90
2019-05-01T19:21:20.128Z,99.90
2019-05-01T19:23:49.593Z,99.90
2019-05-01T19:26:19.632Z,99.90
2019-05-01T19:28:49.850Z,99.90
2019-05-01T19:31:21.444Z,99.90
2019-05-01T19:33:54.380Z,99.90
2019-05-01T19:36:24.214Z,99.90
2019-05-01T19:38:56.313Z,99.90
2019-05-01T19:41:25.849Z,99.90
2019-05-01T19:43:55.443Z,99.90
2019-05-01T19:46:24.986Z,99.90
2019-05-01T19:48:54.531Z,99.90
2019-05-01T19:51:25.979Z,99.90
2019-05-01T19:53:55.277Z,99.90
2019-05-01T19:56:24.754Z,99.90
2019-05-01T19:58:54.295Z,99.90
2019-05-01T20:01:23.820Z,99.90
2019-05-01T20:03:53.237Z,99.90
2019-05-01T20:06:22.722Z,99.90
2019-05-01T20:08:52.791Z,99.90
2019-05-01T20:11:22.398Z,99.90
2019-05-01T20:13:53.360Z,99.90
2019-05-01T20:16:22.752Z,99.90
2019-05-01T20:18:52.264Z,99.90
2019-05-01T20:21:21.689Z,99.90
2019-05-01T20:23:51.159Z,99.90
2019-05-01T20:26:20.692Z,99.90
2019-05-01T20:28:50.100Z,99.90
2019-05-01T20:31:22.959Z,99.90
2019-05-01T20:33:51.355Z,99.90
2019-05-01T20:36:20.725Z,99.90
2019-05-01T20:38:50.121Z,99.90
2019-05-01T20:41:19.517Z,99.90
2019-05-01T20:43:49.062Z,99.90
2019-05-01T20:46:21.494Z,99.90
2019-05-01T20:48:51.240Z,99.90
2019-05-01T20:51:20.646Z,99.90
2019-05-01T20:53:50.104Z,99.90
2019-05-01T20:56:24.205Z,99.90
2019-05-01T20:58:57.783Z,99.90
2019-05-01T21:01:28.295Z,99.90
2019-05-01T21:04:13.456Z,99.90
2019-05-01T21:06:45.687Z,99.90
2019-05-01T21:09:17.195Z,99.90
2019-05-01T21:11:48.914Z,99.90
2019-05-01T21:14:22.570Z,99.90
2019-05-01T21:16:49.495Z,99.90
2019-05-01T21:19:18.882Z,99.90
2019-05-01T21:21:48.344Z,99.90
2019-05-01T21:24:19.374Z,99.90
2019-05-01T21:26:48.777Z,99.90
2019-05-01T21:29:18.323Z,99.90
2019-05-01T21:31:47.738Z,99.90
2019-05-01T21:34:17.115Z,99.90
2019-05-01T21:36:47.536Z,99.90
2019-05-01T21:39:19.782Z,99.90
2019-05-01T21:41:48.793Z,99.90
2019-05-01T21:44:18.234Z,99.90
2019-05-01T21:46:47.633Z,99.90
2019-05-01T21:49:17.023Z,99.90
2019-05-01T21:51:46.440Z,99.90
2019-05-01T21:54:20.523Z,99.90
2019-05-01T21:56:47.043Z,99.90
2019-05-01T21:59:16.586Z,99.90
2019-05-01T22:01:46.051Z,99.90
2019-05-01T22:04:15.517Z,99.90
2019-05-01T22:06:46.851Z,99.90
2019-05-01T22:09:17.823Z,99.90
2019-05-01T22:11:47.370Z,99.90
2019-05-01T22:14:18.543Z,99.90
2019-05-01T22:16:48.135Z,99.90
2019-05-01T22:19:19.258Z,99.90
2019-05-01T22:21:53.395Z,99.90
2019-05-01T22:24:42.665Z,99.90
2019-05-01T22:27:13.665Z,99.90
2019-05-01T22:29:56.921Z,99.90
2019-05-01T22:32:33.966Z,99.90
2019-05-01T22:35:09.103Z,99.90
2019-05-01T22:37:38.471Z,99.90
2019-05-01T22:40:12.592Z,99.90
2019-05-01T22:42:41.982Z,99.90
2019-05-01T22:45:22.509Z,99.90
2019-05-01T22:47:52.234Z,99.90
2019-05-01T22:50:21.778Z,99.90
2019-05-01T22:52:51.504Z,99.90
2019-05-01T22:55:25.266Z,99.90
2019-05-01T22:57:55.190Z,99.90
2019-05-01T23:00:28.553Z,99.90
2019-05-01T23:03:00.118Z,99.90
2019-05-01T23:05:30.694Z,99.90
2019-05-01T23:08:00.124Z,99.90
2019-05-01T23:10:30.210Z,99.90
2019-05-01T23:12:59.590Z,99.90
2019-05-01T23:15:32.823Z,99.90
2019-05-01T23:18:02.294Z,99.90
2019-05-01T23:20:34.684Z,99.90
2019-05-01T23:23:02.875Z,99.90
2019-05-01T23:25:36.618Z,99.90
2019-05-01T23:28:04.190Z,99.90
2019-05-01T23:30:34.575Z,99.90
2019-05-01T23:33:04.166Z,99.90
2019-05-01T23:35:33.773Z,99.90
2019-05-01T23:38:03.412Z,99.90
2019-05-01T23:40:32.979Z,99.90
2019-05-01T23:43:02.404Z,99.90
2019-05-01T23:45:31.815Z,99.90
2019-05-01T23:48:01.188Z,99.90
2019-05-01T23:50:30.489Z,99.90
2019-05-01T23:52:59.901Z,99.90
2019-05-01T23:55:29.293Z,99.90
2019-05-01T23:57:58.726Z,99.90
